CheckWX is a tool to help pilots better visualize weather data.  It is not intended as a substitute for an official pre-flight weather briefing.

14:39:18 UTC

KIEN METAR
Pine Ridge Airport
Pine Ridge, South Dakota, USA
Current

47 mins ago

KIEN 221352Z AUTO 32004KT 10SM OVC060 07/03 A3024 RMK AO2 SLP249 T00720033
Observed
Apr-22 @ 13:52 UTC
Wind
  • 320° at 4 KTS
Visibility
10 SM
Flight Rules
VFR
Cloud Levels
  • Overcast at 6,000' AGL
Temperature
C / 45°F
Dewpoint
C / 37°F
Humidity
76%
Altimeter
30.24" Hg
Pressure
1024.02 hPa
Previous

2 hours ago

KIEN 221252Z AUTO 34003KT 10SM OVC038 06/03 A3023 RMK AO2 SLP247 T00560028
Observed
Apr-22 @ 12:52 UTC
Wind
  • 340° at 3 KTS
Visibility
10 SM
Flight Rules
VFR
Cloud Levels
  • Overcast at 3,800' AGL
Temperature
C / 43°F
Dewpoint
C / 37°F
Humidity
81%
Altimeter
30.23" Hg
Pressure
1023.72 hPa
Previous

3 hours ago

KIEN 221152Z AUTO 34004KT 10SM OVC033 06/03 A3022 RMK AO2 SLP239 60004 70057 T00560028 10056 20050 53014
Observed
Apr-22 @ 11:52 UTC
Wind
  • 340° at 4 KTS
Visibility
10 SM
Flight Rules
VFR
Cloud Levels
  • Overcast at 3,300' AGL
Temperature
C / 43°F
Dewpoint
C / 37°F
Humidity
81%
Altimeter
30.22" Hg
Pressure
1023.42 hPa
24 Hour Rain
0.57"